Terminal Aerodrome Forecast
Issued by NWS Denver/Boulder, CO

Home | Current Version | Previous Version | Text Only | Print | Product List | Glossary On
Versions: 1 2 3 4 5 6 7 8 9 10 11 12 13 14 15 16 17 18 19 20 21 22 23 24 25 26 27 28 29 30 31 32 33 34 35 36 37 38 39 40 41 42 43 44 45 46 47 48 49 50
000
FTUS45 KBOU 210905 AAA
TAFDEN
TAF AMD
KDEN 210905Z 2109/2212 21011KT P6SM FEW150 BKN200
     FM211400 25007KT P6SM FEW140 SCT220
     FM211700 02008KT P6SM FEW100 BKN220
     FM212100 02013KT P6SM SCT090 BKN120
     FM220200 28006KT P6SM SCT090 SCT120 BKN200
     FM220600 25006KT P6SM FEW040 SCT100=

USA.gov is the U.S. government's official web portal to all federal, state and local government web resources and services.